sensor_id;sensor_type;location;lat;lon;timestamp;P1;durP1;ratioP1;P2;durP2;ratioP2
21624;SDS011;10974;51.034;3.744;2022-09-17T00:00:36;2.13;;;1.20;;
21624;SDS011;10974;51.034;3.744;2022-09-17T00:03:03;47.60;;;2.40;;
21624;SDS011;10974;51.034;3.744;2022-09-17T00:05:29;49.80;;;2.20;;
21624;SDS011;10974;51.034;3.744;2022-09-17T00:07:55;7.23;;;1.90;;
21624;SDS011;10974;51.034;3.744;2022-09-17T00:10:20;2.60;;;1.10;;
21624;SDS011;10974;51.034;3.744;2022-09-17T00:12:47;44.67;;;1.97;;
21624;SDS011;10974;51.034;3.744;2022-09-17T00:15:13;5.23;;;1.00;;
21624;SDS011;10974;51.034;3.744;2022-09-17T00:17:39;2.53;;;1.10;;
21624;SDS011;10974;51.034;3.744;2022-09-17T00:20:05;1.83;;;1.00;;
21624;SDS011;10974;51.034;3.744;2022-09-17T00:22:34;1.30;;;1.00;;
21624;SDS011;10974;51.034;3.744;2022-09-17T00:25:00;2.33;;;1.10;;
21624;SDS011;10974;51.034;3.744;2022-09-17T00:27:26;2.40;;;1.23;;
21624;SDS011;10974;51.034;3.744;2022-09-17T00:29:52;5.40;;;1.10;;
21624;SDS011;10974;51.034;3.744;2022-09-17T00:32:18;1.80;;;1.03;;
21624;SDS011;10974;51.034;3.744;2022-09-17T00:34:43;7.53;;;1.60;;
21624;SDS011;10974;51.034;3.744;2022-09-17T00:37:10;1.83;;;1.00;;
21624;SDS011;10974;51.034;3.744;2022-09-17T00:39:36;47.73;;;2.40;;
21624;SDS011;10974;51.034;3.744;2022-09-17T00:42:02;3.63;;;1.10;;
21624;SDS011;10974;51.034;3.744;2022-09-17T00:44:39;2.83;;;1.00;;
21624;SDS011;10974;51.034;3.744;2022-09-17T00:47:12;1.23;;;1.00;;
21624;SDS011;10974;51.034;3.744;2022-09-17T00:49:42;3.40;;;1.37;;
21624;SDS011;10974;51.034;3.744;2022-09-17T00:52:10;4.37;;;1.00;;
21624;SDS011;10974;51.034;3.744;2022-09-17T00:54:40;2.17;;;1.00;;
21624;SDS011;10974;51.034;3.744;2022-09-17T00:57:09;7.47;;;2.43;;
21624;SDS011;10974;51.034;3.744;2022-09-17T00:59:36;7.83;;;2.10;;
21624;SDS011;10974;51.034;3.744;2022-09-17T01:02:02;6.03;;;2.20;;
21624;SDS011;10974;51.034;3.744;2022-09-17T01:04:28;5.00;;;1.90;;
21624;SDS011;10974;51.034;3.744;2022-09-17T01:10:18;7.23;;;2.57;;
21624;SDS011;10974;51.034;3.744;2022-09-17T01:12:55;9.80;;;2.77;;
21624;SDS011;10974;51.034;3.744;2022-09-17T01:21:13;7.33;;;2.30;;
21624;SDS011;10974;51.034;3.744;2022-09-17T01:32:30;7.43;;;2.70;;
21624;SDS011;10974;51.034;3.744;2022-09-17T01:35:09;10.03;;;2.90;;
21624;SDS011;10974;51.034;3.744;2022-09-17T01:43:29;8.90;;;2.63;;
21624;SDS011;10974;51.034;3.744;2022-09-17T01:48:32;7.70;;;2.30;;
21624;SDS011;10974;51.034;3.744;2022-09-17T01:51:09;7.83;;;2.87;;
21624;SDS011;10974;51.034;3.744;2022-09-17T01:53:43;12.50;;;2.63;;
21624;SDS011;10974;51.034;3.744;2022-09-17T01:56:16;8.20;;;2.83;;
21624;SDS011;10974;51.034;3.744;2022-09-17T01:58:50;11.37;;;3.23;;
21624;SDS011;10974;51.034;3.744;2022-09-17T02:01:38;8.80;;;2.87;;
21624;SDS011;10974;51.034;3.744;2022-09-17T02:04:12;9.73;;;3.20;;
21624;SDS011;10974;51.034;3.744;2022-09-17T02:06:55;11.60;;;2.70;;
21624;SDS011;10974;51.034;3.744;2022-09-17T02:09:33;8.63;;;2.33;;
21624;SDS011;10974;51.034;3.744;2022-09-17T02:12:06;10.17;;;2.60;;
21624;SDS011;10974;51.034;3.744;2022-09-17T02:14:38;8.57;;;3.03;;
21624;SDS011;10974;51.034;3.744;2022-09-17T02:17:15;8.80;;;2.67;;
21624;SDS011;10974;51.034;3.744;2022-09-17T02:19:44;12.20;;;2.73;;
21624;SDS011;10974;51.034;3.744;2022-09-17T02:22:13;8.60;;;2.90;;
21624;SDS011;10974;51.034;3.744;2022-09-17T02:27:57;12.37;;;2.50;;
21624;SDS011;10974;51.034;3.744;2022-09-17T02:30:25;9.30;;;2.60;;
21624;SDS011;10974;51.034;3.744;2022-09-17T02:32:51;8.60;;;2.77;;
21624;SDS011;10974;51.034;3.744;2022-09-17T02:35:18;11.13;;;2.60;;
21624;SDS011;10974;51.034;3.744;2022-09-17T02:37:44;7.57;;;2.13;;
21624;SDS011;10974;51.034;3.744;2022-09-17T02:40:10;7.13;;;2.33;;
21624;SDS011;10974;51.034;3.744;2022-09-17T02:59:23;5.20;;;2.30;;
21624;SDS011;10974;51.034;3.744;2022-09-17T03:02:02;7.67;;;2.40;;
21624;SDS011;10974;51.034;3.744;2022-09-17T03:04:35;9.03;;;3.00;;
21624;SDS011;10974;51.034;3.744;2022-09-17T03:07:06;13.47;;;2.83;;
21624;SDS011;10974;51.034;3.744;2022-09-17T03:09:35;8.07;;;2.23;;
21624;SDS011;10974;51.034;3.744;2022-09-17T03:12:01;17.13;;;2.90;;
21624;SDS011;10974;51.034;3.744;2022-09-17T03:14:27;9.60;;;2.60;;
21624;SDS011;10974;51.034;3.744;2022-09-17T03:16:53;10.00;;;2.73;;
21624;SDS011;10974;51.034;3.744;2022-09-17T03:19:18;13.60;;;2.50;;
21624;SDS011;10974;51.034;3.744;2022-09-17T03:21:44;10.00;;;3.07;;
21624;SDS011;10974;51.034;3.744;2022-09-17T03:24:10;11.43;;;3.00;;
21624;SDS011;10974;51.034;3.744;2022-09-17T03:26:36;9.53;;;2.80;;
21624;SDS011;10974;51.034;3.744;2022-09-17T03:29:02;7.50;;;2.83;;
21624;SDS011;10974;51.034;3.744;2022-09-17T03:31:28;7.60;;;1.97;;
21624;SDS011;10974;51.034;3.744;2022-09-17T03:33:54;8.73;;;2.53;;
21624;SDS011;10974;51.034;3.744;2022-09-17T03:36:19;5.07;;;2.30;;
21624;SDS011;10974;51.034;3.744;2022-09-17T03:38:45;13.07;;;2.90;;
21624;SDS011;10974;51.034;3.744;2022-09-17T03:41:11;9.90;;;2.70;;
21624;SDS011;10974;51.034;3.744;2022-09-17T03:43:36;8.10;;;2.37;;
21624;SDS011;10974;51.034;3.744;2022-09-17T03:46:03;11.23;;;2.63;;
21624;SDS011;10974;51.034;3.744;2022-09-17T03:48:30;8.73;;;2.77;;
21624;SDS011;10974;51.034;3.744;2022-09-17T03:50:56;8.53;;;2.10;;
21624;SDS011;10974;51.034;3.744;2022-09-17T03:53:22;6.60;;;2.27;;
21624;SDS011;10974;51.034;3.744;2022-09-17T03:55:47;7.73;;;2.00;;
21624;SDS011;10974;51.034;3.744;2022-09-17T03:58:13;7.93;;;2.20;;
21624;SDS011;10974;51.034;3.744;2022-09-17T04:00:39;7.67;;;2.30;;
21624;SDS011;10974;51.034;3.744;2022-09-17T04:03:06;7.27;;;2.20;;
21624;SDS011;10974;51.034;3.744;2022-09-17T04:05:31;11.53;;;2.23;;
21624;SDS011;10974;51.034;3.744;2022-09-17T04:07:57;8.97;;;2.60;;
21624;SDS011;10974;51.034;3.744;2022-09-17T04:10:23;7.40;;;2.10;;
21624;SDS011;10974;51.034;3.744;2022-09-17T04:12:49;6.53;;;1.63;;
21624;SDS011;10974;51.034;3.744;2022-09-17T04:15:14;3.27;;;1.50;;
21624;SDS011;10974;51.034;3.744;2022-09-17T04:17:40;5.10;;;1.80;;
21624;SDS011;10974;51.034;3.744;2022-09-17T04:20:06;5.63;;;1.90;;
21624;SDS011;10974;51.034;3.744;2022-09-17T04:22:33;4.70;;;2.07;;
21624;SDS011;10974;51.034;3.744;2022-09-17T04:24:58;12.93;;;2.50;;
21624;SDS011;10974;51.034;3.744;2022-09-17T04:27:24;6.00;;;1.90;;
21624;SDS011;10974;51.034;3.744;2022-09-17T04:29:50;10.00;;;2.20;;
21624;SDS011;10974;51.034;3.744;2022-09-17T04:32:16;7.97;;;2.20;;
21624;SDS011;10974;51.034;3.744;2022-09-17T04:34:41;4.53;;;1.80;;
21624;SDS011;10974;51.034;3.744;2022-09-17T04:37:07;7.67;;;2.00;;
21624;SDS011;10974;51.034;3.744;2022-09-17T04:39:33;7.23;;;1.87;;
21624;SDS011;10974;51.034;3.744;2022-09-17T04:41:59;6.00;;;1.77;;
21624;SDS011;10974;51.034;3.744;2022-09-17T04:44:24;7.90;;;2.27;;
21624;SDS011;10974;51.034;3.744;2022-09-17T04:46:50;9.13;;;2.03;;
21624;SDS011;10974;51.034;3.744;2022-09-17T04:49:16;8.40;;;1.83;;
21624;SDS011;10974;51.034;3.744;2022-09-17T04:51:41;8.97;;;1.83;;
21624;SDS011;10974;51.034;3.744;2022-09-17T04:54:07;7.90;;;2.33;;
21624;SDS011;10974;51.034;3.744;2022-09-17T04:56:33;11.40;;;3.07;;
21624;SDS011;10974;51.034;3.744;2022-09-17T04:58:58;5.33;;;1.93;;
21624;SDS011;10974;51.034;3.744;2022-09-17T05:01:24;10.73;;;2.17;;
21624;SDS011;10974;51.034;3.744;2022-09-17T05:03:50;6.90;;;2.43;;
21624;SDS011;10974;51.034;3.744;2022-09-17T05:06:15;10.20;;;3.00;;
21624;SDS011;10974;51.034;3.744;2022-09-17T05:08:41;7.17;;;2.73;;
21624;SDS011;10974;51.034;3.744;2022-09-17T05:11:06;6.67;;;2.60;;
21624;SDS011;10974;51.034;3.744;2022-09-17T05:13:32;5.50;;;2.07;;
21624;SDS011;10974;51.034;3.744;2022-09-17T05:15:58;5.40;;;2.37;;
21624;SDS011;10974;51.034;3.744;2022-09-17T05:18:24;7.80;;;2.40;;
21624;SDS011;10974;51.034;3.744;2022-09-17T05:20:50;11.10;;;2.13;;
21624;SDS011;10974;51.034;3.744;2022-09-17T05:23:18;8.80;;;2.07;;
21624;SDS011;10974;51.034;3.744;2022-09-17T05:25:44;10.50;;;2.60;;
21624;SDS011;10974;51.034;3.744;2022-09-17T05:28:09;5.97;;;2.10;;
21624;SDS011;10974;51.034;3.744;2022-09-17T05:30:35;15.03;;;2.97;;
21624;SDS011;10974;51.034;3.744;2022-09-17T05:33:02;6.77;;;2.20;;
21624;SDS011;10974;51.034;3.744;2022-09-17T05:35:30;8.70;;;2.10;;
21624;SDS011;10974;51.034;3.744;2022-09-17T05:37:59;9.03;;;2.17;;
21624;SDS011;10974;51.034;3.744;2022-09-17T05:40:27;9.80;;;1.70;;
21624;SDS011;10974;51.034;3.744;2022-09-17T05:42:59;9.67;;;2.03;;
21624;SDS011;10974;51.034;3.744;2022-09-17T05:45:27;6.30;;;2.13;;
21624;SDS011;10974;51.034;3.744;2022-09-17T05:47:54;9.17;;;2.30;;
21624;SDS011;10974;51.034;3.744;2022-09-17T05:50:20;6.27;;;2.00;;
21624;SDS011;10974;51.034;3.744;2022-09-17T05:52:46;6.90;;;2.10;;
21624;SDS011;10974;51.034;3.744;2022-09-17T05:55:12;7.10;;;1.93;;
21624;SDS011;10974;51.034;3.744;2022-09-17T05:57:38;3.03;;;1.17;;
21624;SDS011;10974;51.034;3.744;2022-09-17T06:00:03;3.40;;;1.80;;
21624;SDS011;10974;51.034;3.744;2022-09-17T06:02:30;25.07;;;2.60;;
21624;SDS011;10974;51.034;3.744;2022-09-17T06:04:56;14.10;;;2.50;;
21624;SDS011;10974;51.034;3.744;2022-09-17T06:07:25;27.67;;;4.13;;
21624;SDS011;10974;51.034;3.744;2022-09-17T06:09:52;27.13;;;3.17;;
21624;SDS011;10974;51.034;3.744;2022-09-17T06:12:17;22.63;;;2.60;;
21624;SDS011;10974;51.034;3.744;2022-09-17T06:14:43;21.73;;;5.83;;
21624;SDS011;10974;51.034;3.744;2022-09-17T06:17:09;20.60;;;2.93;;
21624;SDS011;10974;51.034;3.744;2022-09-17T06:19:34;22.20;;;2.93;;
21624;SDS011;10974;51.034;3.744;2022-09-17T06:22:00;19.10;;;3.90;;
21624;SDS011;10974;51.034;3.744;2022-09-17T06:24:26;20.23;;;3.33;;
21624;SDS011;10974;51.034;3.744;2022-09-17T06:26:52;25.00;;;3.00;;
21624;SDS011;10974;51.034;3.744;2022-09-17T06:29:18;26.03;;;2.80;;
21624;SDS011;10974;51.034;3.744;2022-09-17T06:31:46;21.00;;;3.53;;
21624;SDS011;10974;51.034;3.744;2022-09-17T06:34:12;13.27;;;2.60;;
21624;SDS011;10974;51.034;3.744;2022-09-17T06:36:38;14.80;;;2.70;;
21624;SDS011;10974;51.034;3.744;2022-09-17T06:39:04;15.10;;;3.17;;
21624;SDS011;10974;51.034;3.744;2022-09-17T06:41:30;10.97;;;2.33;;
21624;SDS011;10974;51.034;3.744;2022-09-17T06:43:55;6.93;;;1.87;;
21624;SDS011;10974;51.034;3.744;2022-09-17T06:46:21;9.27;;;1.77;;
21624;SDS011;10974;51.034;3.744;2022-09-17T06:48:47;3.73;;;1.50;;
21624;SDS011;10974;51.034;3.744;2022-09-17T06:51:12;6.40;;;1.30;;
21624;SDS011;10974;51.034;3.744;2022-09-17T06:53:39;2.47;;;1.50;;
21624;SDS011;10974;51.034;3.744;2022-09-17T06:56:05;2.63;;;1.03;;
21624;SDS011;10974;51.034;3.744;2022-09-17T06:58:33;8.73;;;1.50;;
21624;SDS011;10974;51.034;3.744;2022-09-17T07:01:05;62.43;;;3.77;;
21624;SDS011;10974;51.034;3.744;2022-09-17T07:03:31;13.43;;;2.47;;
21624;SDS011;10974;51.034;3.744;2022-09-17T07:05:57;18.53;;;2.57;;
21624;SDS011;10974;51.034;3.744;2022-09-17T07:08:24;18.07;;;2.00;;
21624;SDS011;10974;51.034;3.744;2022-09-17T07:10:50;21.07;;;2.33;;
21624;SDS011;10974;51.034;3.744;2022-09-17T07:13:18;20.77;;;3.30;;
21624;SDS011;10974;51.034;3.744;2022-09-17T07:15:50;17.43;;;2.40;;
21624;SDS011;10974;51.034;3.744;2022-09-17T07:18:17;7.80;;;2.40;;
21624;SDS011;10974;51.034;3.744;2022-09-17T07:20:43;12.33;;;2.20;;
21624;SDS011;10974;51.034;3.744;2022-09-17T07:23:08;4.57;;;1.87;;
21624;SDS011;10974;51.034;3.744;2022-09-17T07:25:34;18.23;;;3.03;;
21624;SDS011;10974;51.034;3.744;2022-09-17T07:28:01;10.10;;;2.80;;
21624;SDS011;10974;51.034;3.744;2022-09-17T07:30:27;9.63;;;2.03;;
21624;SDS011;10974;51.034;3.744;2022-09-17T07:32:53;11.10;;;1.90;;
21624;SDS011;10974;51.034;3.744;2022-09-17T07:35:18;72.37;;;4.00;;
21624;SDS011;10974;51.034;3.744;2022-09-17T07:37:44;5.67;;;1.50;;
21624;SDS011;10974;51.034;3.744;2022-09-17T07:40:11;8.27;;;1.90;;
21624;SDS011;10974;51.034;3.744;2022-09-17T07:42:37;2.93;;;1.23;;
21624;SDS011;10974;51.034;3.744;2022-09-17T07:45:02;3.77;;;1.00;;
21624;SDS011;10974;51.034;3.744;2022-09-17T07:47:28;3.93;;;1.40;;
21624;SDS011;10974;51.034;3.744;2022-09-17T07:49:54;2.03;;;0.90;;
21624;SDS011;10974;51.034;3.744;2022-09-17T07:52:19;2.67;;;1.00;;
21624;SDS011;10974;51.034;3.744;2022-09-17T07:54:45;1.70;;;0.87;;
21624;SDS011;10974;51.034;3.744;2022-09-17T07:57:11;2.27;;;0.80;;
21624;SDS011;10974;51.034;3.744;2022-09-17T07:59:37;1.00;;;0.90;;
21624;SDS011;10974;51.034;3.744;2022-09-17T08:02:02;5.87;;;1.00;;
21624;SDS011;10974;51.034;3.744;2022-09-17T08:04:28;1.40;;;0.90;;
21624;SDS011;10974;51.034;3.744;2022-09-17T08:06:53;11.27;;;1.80;;
21624;SDS011;10974;51.034;3.744;2022-09-17T08:09:19;11.80;;;2.57;;
21624;SDS011;10974;51.034;3.744;2022-09-17T08:11:46;13.53;;;2.60;;
21624;SDS011;10974;51.034;3.744;2022-09-17T08:14:13;17.80;;;3.13;;
21624;SDS011;10974;51.034;3.744;2022-09-17T08:16:39;65.37;;;3.73;;
21624;SDS011;10974;51.034;3.744;2022-09-17T08:19:05;18.77;;;3.23;;
21624;SDS011;10974;51.034;3.744;2022-09-17T08:21:34;14.93;;;2.70;;
21624;SDS011;10974;51.034;3.744;2022-09-17T08:24:01;11.33;;;2.67;;
21624;SDS011;10974;51.034;3.744;2022-09-17T08:26:26;7.53;;;2.07;;
21624;SDS011;10974;51.034;3.744;2022-09-17T08:28:52;51.40;;;2.93;;
21624;SDS011;10974;51.034;3.744;2022-09-17T08:31:20;16.10;;;2.37;;
21624;SDS011;10974;51.034;3.744;2022-09-17T08:33:54;13.60;;;2.20;;
21624;SDS011;10974;51.034;3.744;2022-09-17T08:36:20;12.30;;;2.87;;
21624;SDS011;10974;51.034;3.744;2022-09-17T08:38:46;11.80;;;2.43;;
21624;SDS011;10974;51.034;3.744;2022-09-17T09:06:40;60.30;;;2.87;;
21624;SDS011;10974;51.034;3.744;2022-09-17T09:09:12;53.80;;;2.37;;
21624;SDS011;10974;51.034;3.744;2022-09-17T09:11:39;5.50;;;1.30;;
21624;SDS011;10974;51.034;3.744;2022-09-17T09:16:39;6.80;;;1.77;;
21624;SDS011;10974;51.034;3.744;2022-09-17T09:21:51;13.57;;;2.00;;
21624;SDS011;10974;51.034;3.744;2022-09-17T09:24:23;5.00;;;1.77;;
21624;SDS011;10974;51.034;3.744;2022-09-17T09:30:11;3.07;;;1.10;;
21624;SDS011;10974;51.034;3.744;2022-09-17T09:35:38;2.83;;;0.83;;
21624;SDS011;10974;51.034;3.744;2022-09-17T09:41:14;1.30;;;0.90;;
21624;SDS011;10974;51.034;3.744;2022-09-17T09:43:51;1.43;;;0.80;;
21624;SDS011;10974;51.034;3.744;2022-09-17T09:46:43;1.07;;;0.70;;
21624;SDS011;10974;51.034;3.744;2022-09-17T09:57:15;3.97;;;1.70;;
21624;SDS011;10974;51.034;3.744;2022-09-17T09:59:43;5.37;;;2.40;;
21624;SDS011;10974;51.034;3.744;2022-09-17T10:02:09;3.57;;;1.60;;
21624;SDS011;10974;51.034;3.744;2022-09-17T10:04:35;5.07;;;1.50;;
21624;SDS011;10974;51.034;3.744;2022-09-17T10:07:02;4.20;;;1.47;;
21624;SDS011;10974;51.034;3.744;2022-09-17T10:09:30;4.83;;;1.60;;
21624;SDS011;10974;51.034;3.744;2022-09-17T10:12:01;3.03;;;1.23;;
21624;SDS011;10974;51.034;3.744;2022-09-17T10:14:34;6.53;;;2.80;;
21624;SDS011;10974;51.034;3.744;2022-09-17T10:19:38;4.97;;;2.43;;
21624;SDS011;10974;51.034;3.744;2022-09-17T10:22:24;8.20;;;2.77;;
21624;SDS011;10974;51.034;3.744;2022-09-17T10:24:58;4.23;;;1.90;;
21624;SDS011;10974;51.034;3.744;2022-09-17T10:27:25;6.23;;;1.70;;
21624;SDS011;10974;51.034;3.744;2022-09-17T10:30:02;4.70;;;1.70;;
21624;SDS011;10974;51.034;3.744;2022-09-17T10:32:41;2.60;;;1.30;;
21624;SDS011;10974;51.034;3.744;2022-09-17T10:42:45;5.67;;;2.00;;
21624;SDS011;10974;51.034;3.744;2022-09-17T10:47:51;2.23;;;1.27;;
21624;SDS011;10974;51.034;3.744;2022-09-17T10:50:19;5.27;;;1.50;;
21624;SDS011;10974;51.034;3.744;2022-09-17T10:52:50;5.27;;;2.00;;
21624;SDS011;10974;51.034;3.744;2022-09-17T10:58:04;5.10;;;1.83;;
21624;SDS011;10974;51.034;3.744;2022-09-17T11:04:03;4.90;;;1.60;;
21624;SDS011;10974;51.034;3.744;2022-09-17T11:14:49;6.43;;;1.73;;
21624;SDS011;10974;51.034;3.744;2022-09-17T11:25:23;7.93;;;1.90;;
21624;SDS011;10974;51.034;3.744;2022-09-17T11:31:36;5.23;;;1.70;;
21624;SDS011;10974;51.034;3.744;2022-09-17T11:39:38;5.37;;;1.97;;
21624;SDS011;10974;51.034;3.744;2022-09-17T11:42:31;5.07;;;2.10;;
21624;SDS011;10974;51.034;3.744;2022-09-17T11:45:19;6.87;;;2.10;;
21624;SDS011;10974;51.034;3.744;2022-09-17T11:48:15;11.03;;;2.13;;
21624;SDS011;10974;51.034;3.744;2022-09-17T11:51:30;9.93;;;2.40;;
21624;SDS011;10974;51.034;3.744;2022-09-17T11:53:39;7.67;;;2.27;;
21624;SDS011;10974;51.034;3.744;2022-09-17T11:57:08;9.93;;;2.30;;
21624;SDS011;10974;51.034;3.744;2022-09-17T11:59:26;8.40;;;2.33;;
21624;SDS011;10974;51.034;3.744;2022-09-17T12:02:25;9.13;;;2.30;;
21624;SDS011;10974;51.034;3.744;2022-09-17T12:04:57;6.60;;;2.07;;
21624;SDS011;10974;51.034;3.744;2022-09-17T12:07:39;18.43;;;2.70;;
21624;SDS011;10974;51.034;3.744;2022-09-17T12:12:56;6.90;;;1.90;;
21624;SDS011;10974;51.034;3.744;2022-09-17T12:15:28;4.83;;;1.73;;
21624;SDS011;10974;51.034;3.744;2022-09-17T12:18:32;7.23;;;2.17;;
21624;SDS011;10974;51.034;3.744;2022-09-17T12:20:56;7.73;;;1.97;;
21624;SDS011;10974;51.034;3.744;2022-09-17T12:23:29;7.87;;;2.53;;
21624;SDS011;10974;51.034;3.744;2022-09-17T12:26:17;7.33;;;2.50;;
21624;SDS011;10974;51.034;3.744;2022-09-17T12:29:02;8.47;;;3.07;;
21624;SDS011;10974;51.034;3.744;2022-09-17T12:31:49;7.43;;;3.07;;
21624;SDS011;10974;51.034;3.744;2022-09-17T12:37:36;6.87;;;2.37;;
21624;SDS011;10974;51.034;3.744;2022-09-17T12:40:24;5.57;;;1.90;;
21624;SDS011;10974;51.034;3.744;2022-09-17T12:52:14;5.60;;;1.90;;
21624;SDS011;10974;51.034;3.744;2022-09-17T13:00:14;10.70;;;1.20;;
21624;SDS011;10974;51.034;3.744;2022-09-17T13:18:19;6.20;;;2.03;;
21624;SDS011;10974;51.034;3.744;2022-09-17T13:21:14;5.60;;;2.07;;
21624;SDS011;10974;51.034;3.744;2022-09-17T13:23:45;5.63;;;2.00;;
21624;SDS011;10974;51.034;3.744;2022-09-17T13:26:14;6.80;;;1.90;;
21624;SDS011;10974;51.034;3.744;2022-09-17T13:28:47;9.07;;;1.87;;
21624;SDS011;10974;51.034;3.744;2022-09-17T13:31:18;5.97;;;2.40;;
21624;SDS011;10974;51.034;3.744;2022-09-17T13:33:59;7.40;;;1.70;;
21624;SDS011;10974;51.034;3.744;2022-09-17T13:38:58;6.00;;;2.17;;
21624;SDS011;10974;51.034;3.744;2022-09-17T13:41:26;6.00;;;1.70;;
21624;SDS011;10974;51.034;3.744;2022-09-17T13:43:52;7.87;;;2.13;;
21624;SDS011;10974;51.034;3.744;2022-09-17T13:46:22;6.50;;;1.70;;
21624;SDS011;10974;51.034;3.744;2022-09-17T13:48:54;9.30;;;1.80;;
21624;SDS011;10974;51.034;3.744;2022-09-17T13:53:55;7.63;;;2.00;;
21624;SDS011;10974;51.034;3.744;2022-09-17T13:56:43;5.53;;;1.73;;
21624;SDS011;10974;51.034;3.744;2022-09-17T13:59:19;3.13;;;1.40;;
21624;SDS011;10974;51.034;3.744;2022-09-17T14:17:57;2.50;;;1.40;;
21624;SDS011;10974;51.034;3.744;2022-09-17T14:20:23;4.03;;;1.50;;
21624;SDS011;10974;51.034;3.744;2022-09-17T14:22:56;2.70;;;1.30;;
21624;SDS011;10974;51.034;3.744;2022-09-17T14:25:28;2.23;;;1.17;;
21624;SDS011;10974;51.034;3.744;2022-09-17T14:28:02;3.00;;;1.47;;
21624;SDS011;10974;51.034;3.744;2022-09-17T14:30:35;1.30;;;1.00;;
21624;SDS011;10974;51.034;3.744;2022-09-17T14:33:05;2.37;;;1.20;;
21624;SDS011;10974;51.034;3.744;2022-09-17T14:35:45;3.07;;;1.50;;
21624;SDS011;10974;51.034;3.744;2022-09-17T14:40:45;3.53;;;1.70;;
21624;SDS011;10974;51.034;3.744;2022-09-17T14:43:15;4.90;;;1.80;;
21624;SDS011;10974;51.034;3.744;2022-09-17T14:46:14;3.10;;;1.37;;
21624;SDS011;10974;51.034;3.744;2022-09-17T14:48:42;2.37;;;1.50;;
21624;SDS011;10974;51.034;3.744;2022-09-17T14:53:47;11.97;;;4.90;;
21624;SDS011;10974;51.034;3.744;2022-09-17T14:56:18;8.30;;;3.20;;
21624;SDS011;10974;51.034;3.744;2022-09-17T14:58:47;9.13;;;3.40;;
21624;SDS011;10974;51.034;3.744;2022-09-17T15:01:20;9.67;;;2.60;;
21624;SDS011;10974;51.034;3.744;2022-09-17T15:03:49;5.60;;;1.93;;
21624;SDS011;10974;51.034;3.744;2022-09-17T15:06:21;2.30;;;1.43;;
21624;SDS011;10974;51.034;3.744;2022-09-17T15:08:47;3.97;;;1.80;;
21624;SDS011;10974;51.034;3.744;2022-09-17T15:11:13;3.67;;;1.60;;
21624;SDS011;10974;51.034;3.744;2022-09-17T15:13:49;3.20;;;1.70;;
21624;SDS011;10974;51.034;3.744;2022-09-17T15:18:49;5.00;;;2.70;;
21624;SDS011;10974;51.034;3.744;2022-09-17T15:23:42;3.27;;;1.63;;
21624;SDS011;10974;51.034;3.744;2022-09-17T15:26:10;6.83;;;2.60;;
21624;SDS011;10974;51.034;3.744;2022-09-17T15:28:38;3.23;;;1.60;;
21624;SDS011;10974;51.034;3.744;2022-09-17T15:31:17;4.83;;;1.83;;
21624;SDS011;10974;51.034;3.744;2022-09-17T15:33:44;2.10;;;1.43;;
21624;SDS011;10974;51.034;3.744;2022-09-17T15:38:51;6.90;;;1.40;;
21624;SDS011;10974;51.034;3.744;2022-09-17T15:44:06;4.57;;;1.70;;
21624;SDS011;10974;51.034;3.744;2022-09-17T15:46:43;4.60;;;1.60;;
21624;SDS011;10974;51.034;3.744;2022-09-17T15:49:28;5.83;;;2.17;;
21624;SDS011;10974;51.034;3.744;2022-09-17T15:54:59;3.87;;;1.90;;
21624;SDS011;10974;51.034;3.744;2022-09-17T15:57:26;50.53;;;2.23;;
21624;SDS011;10974;51.034;3.744;2022-09-17T15:59:54;48.67;;;2.03;;
21624;SDS011;10974;51.034;3.744;2022-09-17T16:02:25;51.33;;;2.13;;
21624;SDS011;10974;51.034;3.744;2022-09-17T16:07:43;49.40;;;2.00;;
21624;SDS011;10974;51.034;3.744;2022-09-17T16:10:10;48.80;;;2.30;;
21624;SDS011;10974;51.034;3.744;2022-09-17T16:12:37;49.93;;;2.50;;
21624;SDS011;10974;51.034;3.744;2022-09-17T16:15:03;47.50;;;2.07;;
21624;SDS011;10974;51.034;3.744;2022-09-17T16:20:12;42.80;;;2.07;;
21624;SDS011;10974;51.034;3.744;2022-09-17T16:22:41;48.23;;;2.17;;
21624;SDS011;10974;51.034;3.744;2022-09-17T16:25:08;45.20;;;2.07;;
21624;SDS011;10974;51.034;3.744;2022-09-17T16:27:53;49.07;;;2.53;;
21624;SDS011;10974;51.034;3.744;2022-09-17T16:30:22;6.77;;;1.50;;
21624;SDS011;10974;51.034;3.744;2022-09-17T16:32:48;45.70;;;2.20;;
21624;SDS011;10974;51.034;3.744;2022-09-17T16:35:15;50.27;;;2.37;;
21624;SDS011;10974;51.034;3.744;2022-09-17T16:37:49;48.40;;;2.27;;
21624;SDS011;10974;51.034;3.744;2022-09-17T16:40:15;50.80;;;2.50;;
21624;SDS011;10974;51.034;3.744;2022-09-17T16:42:42;50.57;;;2.10;;
21624;SDS011;10974;51.034;3.744;2022-09-17T16:45:08;51.33;;;2.17;;
21624;SDS011;10974;51.034;3.744;2022-09-17T16:47:35;51.30;;;2.47;;
21624;SDS011;10974;51.034;3.744;2022-09-17T16:50:08;49.30;;;2.50;;
21624;SDS011;10974;51.034;3.744;2022-09-17T16:52:36;54.23;;;2.60;;
21624;SDS011;10974;51.034;3.744;2022-09-17T16:55:02;63.00;;;2.80;;
21624;SDS011;10974;51.034;3.744;2022-09-17T16:57:29;42.07;;;2.07;;
21624;SDS011;10974;51.034;3.744;2022-09-17T16:59:56;133.43;;;5.13;;
21624;SDS011;10974;51.034;3.744;2022-09-17T17:02:22;45.63;;;1.83;;
21624;SDS011;10974;51.034;3.744;2022-09-17T17:04:47;47.00;;;2.03;;
21624;SDS011;10974;51.034;3.744;2022-09-17T17:07:13;43.50;;;2.10;;
21624;SDS011;10974;51.034;3.744;2022-09-17T17:09:39;46.20;;;1.83;;
21624;SDS011;10974;51.034;3.744;2022-09-17T17:12:05;46.80;;;1.97;;
21624;SDS011;10974;51.034;3.744;2022-09-17T17:14:31;51.30;;;2.37;;
21624;SDS011;10974;51.034;3.744;2022-09-17T17:16:57;47.50;;;2.00;;
21624;SDS011;10974;51.034;3.744;2022-09-17T17:19:22;44.20;;;2.10;;
21624;SDS011;10974;51.034;3.744;2022-09-17T17:21:49;50.13;;;2.07;;
21624;SDS011;10974;51.034;3.744;2022-09-17T17:24:15;3.67;;;1.90;;
21624;SDS011;10974;51.034;3.744;2022-09-17T17:26:41;4.80;;;2.13;;
21624;SDS011;10974;51.034;3.744;2022-09-17T17:29:07;4.40;;;1.80;;
21624;SDS011;10974;51.034;3.744;2022-09-17T17:31:33;6.60;;;2.00;;
21624;SDS011;10974;51.034;3.744;2022-09-17T17:33:59;4.90;;;1.80;;
21624;SDS011;10974;51.034;3.744;2022-09-17T17:36:25;2.60;;;1.40;;
21624;SDS011;10974;51.034;3.744;2022-09-17T17:39:00;5.07;;;2.10;;
21624;SDS011;10974;51.034;3.744;2022-09-17T17:41:26;6.10;;;2.10;;
21624;SDS011;10974;51.034;3.744;2022-09-17T17:43:52;6.43;;;2.50;;
21624;SDS011;10974;51.034;3.744;2022-09-17T17:46:18;4.20;;;1.50;;
21624;SDS011;10974;51.034;3.744;2022-09-17T17:48:44;3.07;;;1.50;;
21624;SDS011;10974;51.034;3.744;2022-09-17T17:51:10;4.40;;;1.60;;
21624;SDS011;10974;51.034;3.744;2022-09-17T17:53:36;2.30;;;1.27;;
21624;SDS011;10974;51.034;3.744;2022-09-17T17:56:07;3.47;;;1.83;;
21624;SDS011;10974;51.034;3.744;2022-09-17T17:58:34;3.50;;;1.60;;
21624;SDS011;10974;51.034;3.744;2022-09-17T18:01:10;5.33;;;2.43;;
21624;SDS011;10974;51.034;3.744;2022-09-17T18:03:37;5.30;;;2.43;;
21624;SDS011;10974;51.034;3.744;2022-09-17T18:06:03;6.57;;;3.30;;
21624;SDS011;10974;51.034;3.744;2022-09-17T18:08:30;5.93;;;3.20;;
21624;SDS011;10974;51.034;3.744;2022-09-17T18:10:56;5.03;;;2.30;;
21624;SDS011;10974;51.034;3.744;2022-09-17T18:13:28;4.50;;;2.03;;
21624;SDS011;10974;51.034;3.744;2022-09-17T18:15:55;3.80;;;1.67;;
21624;SDS011;10974;51.034;3.744;2022-09-17T18:18:22;3.47;;;1.70;;
21624;SDS011;10974;51.034;3.744;2022-09-17T18:20:50;5.10;;;1.87;;
21624;SDS011;10974;51.034;3.744;2022-09-17T18:23:18;3.07;;;1.73;;
21624;SDS011;10974;51.034;3.744;2022-09-17T18:25:51;2.03;;;1.50;;
21624;SDS011;10974;51.034;3.744;2022-09-17T18:28:20;4.73;;;1.70;;
21624;SDS011;10974;51.034;3.744;2022-09-17T18:30:46;3.90;;;1.87;;
21624;SDS011;10974;51.034;3.744;2022-09-17T18:33:15;4.70;;;2.23;;
21624;SDS011;10974;51.034;3.744;2022-09-17T18:35:42;5.37;;;2.20;;